Terminal Aerodrome Forecast
Issued by NWS Sioux Falls, SD

Home | Current Version | Previous Version | Text Only | Print | Product List | Glossary Off
Versions: 1 2 3 4 5 6 7 8 9 10 11 12 13 14 15 16 17 18 19 20 21 22 23 24 25 26 27 28 29 30 31 32 33 34 35 36 37 38 39

146
FTUS43 KFSD 130635 RRA
TAFSUX
TAF
KSUX 130635Z 1307/1406 VRB05KT P6SM SCT120 BKN200
     FM131200 11005KT P6SM OVC080
     FM131800 14013G19KT P6SM OVC050
     FM132200 16015G25KT P6SM OVC030
     FM140000 15017G27KT 3SM -SN BR OVC019
     FM140200 14020G30KT 1 1/2SM -SN BR OVC015=

USA.gov is the U.S. government's official web portal to all federal, state and local government web resources and services.